Toyofukumaru — JD2177 — position and weather

sailwx.info

Track history (hours):
 
Tides and Currents Weather Stations Pressure Air Temp Water Temp Dewpoint Dewpoint Depression Visibility Wind Speed Wind Dir Waves Ship Positions

Toyofukumaru

Last reported at 2016-Feb-12 10:29 UTC. Time now 2016-Feb-12 16:08 UTC.
Position N 33°55' E 134°59'.

Length 165 m; draft 6.2 m.

Type: Cargo ship. MMSI: 431200688.

Date/timePositionNaut miles runAvg speedWind from/ knotsBaromVisibWave heightAir tempDewpointWater temp
2016-Feb-12 10:29N 33°55' E 134°59'1819.1
2016-Feb-12 09:34N 34°12' E 134°58'1717.3
2016-Feb-12 08:33N 34°29' E 135°02'1211.3
2016-Feb-12 07:28N 34°33' E 134°48'  
2016-Feb-09 20:20N 34°32' E 134°43'1519.2
2016-Feb-09 19:33N 34°38' E 134°60'1514.9
2016-Feb-09 18:33N 34°23' E 135°02'1817.6
2016-Feb-09 17:33N 34°05' E 135°00'176 6.9
2016-Feb-08 16:04N 34°29' E 138°31'6317.3
2016-Feb-08 12:26N 34°60' E 139°38'6 3.0
2016-Feb-08 10:33N 35°04' E 139°42'1413.9
2016-Feb-08 09:34N 35°18' E 139°44'7 7.1
2016-Feb-08 08:34N 35°23' E 139°39'0 0.0
2016-Feb-08 07:31N 35°23' E 139°39'0 0.0
2016-Feb-08 06:34N 35°23' E 139°39'0 0.0
2016-Feb-08 05:34N 35°23' E 139°39'5 4.6
2016-Feb-08 04:33N 35°25' E 139°44'1918.6
2016-Feb-08 03:33N 35°35' E 140°03'2 1.7
2016-Feb-08 02:32N 35°36' E 140°05'0 0.0
2016-Feb-08 01:29N 35°36' E 140°05'0 0.0
2016-Feb-08 00:32N 35°36' E 140°05'0 0.0
2016-Feb-07 23:32N 35°36' E 140°05'0 0.0
2016-Feb-07 22:32N 35°36' E 140°05'0 0.0
2016-Feb-07 21:32N 35°36' E 140°05'0 0.0
2016-Feb-07 20:32N 35°36' E 140°05'9 9.2
2016-Feb-07 19:33N 35°31' E 139°56'1514.6
2016-Feb-07 18:33N 35°20' E 139°44'1413.6
2016-Feb-07 17:33N 35°06' E 139°46'2518.5
2016-Feb-07 16:14N 34°52' E 139°22'4817.7
2016-Feb-07 13:30N 34°28' E 138°31'178 6.5
2016-Feb-06 10:13N 33°53' E 134°60'1320.0
2016-Feb-06 09:34N 34°06' E 134°59'2019.5
2016-Feb-06 08:33N 34°25' E 135°01'1111.3
2016-Feb-06 07:33N 34°35' E 134°55'  
2016-Feb-03 21:19N 34°33' E 134°47'1519.3
2016-Feb-03 20:33N 34°35' E 135°04'1919.5
2016-Feb-03 19:34N 34°16' E 134°59'2120.5
2016-Feb-03 18:32N 33°55' E 135°01'179 6.8
2016-Feb-02 16:03N 34°31' E 138°33'5218.9
2016-Feb-02 13:17N 34°57' E 139°28'1520.7
2016-Feb-02 12:33N 35°06' E 139°43'1413.9
2016-Feb-02 11:34N 35°20' E 139°43'5 4.6
2016-Feb-02 10:33N 35°23' E 139°39'  
Track history (hours):
 
Tides and Currents Weather Stations Pressure Air Temp Water Temp Dewpoint Dewpoint Depression Visibility Wind Speed Wind Dir Waves Ship Positions

Toyofukumaru

Last reported at 2016-Feb-12 10:29 UTC. Time now 2016-Feb-12 16:08 UTC.
Position N 33°55' E 134°59'.

Length 165 m; draft 6.2 m.

Type: Cargo ship. MMSI: 431200688.

Date/timePositionNaut miles runAvg speedWind from/ knotsBaromVisibWave heightAir tempDewpointWater temp
2016-Feb-12 10:29N 33°55' E 134°59'1819.1
2016-Feb-12 09:34N 34°12' E 134°58'1717.3
2016-Feb-12 08:33N 34°29' E 135°02'1211.3
2016-Feb-12 07:28N 34°33' E 134°48'  
2016-Feb-09 20:20N 34°32' E 134°43'1519.2
2016-Feb-09 19:33N 34°38' E 134°60'1514.9
2016-Feb-09 18:33N 34°23' E 135°02'1817.6
2016-Feb-09 17:33N 34°05' E 135°00'176 6.9
2016-Feb-08 16:04N 34°29' E 138°31'6317.3
2016-Feb-08 12:26N 34°60' E 139°38'6 3.0
2016-Feb-08 10:33N 35°04' E 139°42'1413.9
2016-Feb-08 09:34N 35°18' E 139°44'7 7.1
2016-Feb-08 08:34N 35°23' E 139°39'0 0.0
2016-Feb-08 07:31N 35°23' E 139°39'0 0.0
2016-Feb-08 06:34N 35°23' E 139°39'0 0.0
2016-Feb-08 05:34N 35°23' E 139°39'5 4.6
2016-Feb-08 04:33N 35°25' E 139°44'1918.6
2016-Feb-08 03:33N 35°35' E 140°03'2 1.7
2016-Feb-08 02:32N 35°36' E 140°05'0 0.0
2016-Feb-08 01:29N 35°36' E 140°05'0 0.0
2016-Feb-08 00:32N 35°36' E 140°05'0 0.0
2016-Feb-07 23:32N 35°36' E 140°05'0 0.0
2016-Feb-07 22:32N 35°36' E 140°05'0 0.0
2016-Feb-07 21:32N 35°36' E 140°05'0 0.0
2016-Feb-07 20:32N 35°36' E 140°05'9 9.2
2016-Feb-07 19:33N 35°31' E 139°56'1514.6
2016-Feb-07 18:33N 35°20' E 139°44'1413.6
2016-Feb-07 17:33N 35°06' E 139°46'2518.5
2016-Feb-07 16:14N 34°52' E 139°22'4817.7
2016-Feb-07 13:30N 34°28' E 138°31'178 6.5
2016-Feb-06 10:13N 33°53' E 134°60'1320.0
2016-Feb-06 09:34N 34°06' E 134°59'2019.5
2016-Feb-06 08:33N 34°25' E 135°01'1111.3
2016-Feb-06 07:33N 34°35' E 134°55'  
2016-Feb-03 21:19N 34°33' E 134°47'1519.3
2016-Feb-03 20:33N 34°35' E 135°04'1919.5
2016-Feb-03 19:34N 34°16' E 134°59'2120.5
2016-Feb-03 18:32N 33°55' E 135°01'179 6.8
2016-Feb-02 16:03N 34°31' E 138°33'5218.9
2016-Feb-02 13:17N 34°57' E 139°28'1520.7
2016-Feb-02 12:33N 35°06' E 139°43'1413.9
2016-Feb-02 11:34N 35°20' E 139°43'5 4.6
2016-Feb-02 10:33N 35°23' E 139°39'  

Dump ship's entire track history